sensor_id;sensor_type;location;lat;lon;timestamp;P1;durP1;ratioP1;P2;durP2;ratioP2
11447;SDS011;43755;49.736;8.734;2022-08-19T00:01:39;18.20;;;16.50;;
11447;SDS011;43755;49.736;8.734;2022-08-19T00:03:44;19.10;;;17.38;;
11447;SDS011;43755;49.736;8.734;2022-08-19T00:05:45;18.65;;;16.88;;
11447;SDS011;43755;49.736;8.734;2022-08-19T00:07:47;19.25;;;17.45;;
11447;SDS011;43755;49.736;8.734;2022-08-19T00:09:49;18.80;;;17.00;;
11447;SDS011;43755;49.736;8.734;2022-08-19T00:11:51;18.83;;;16.92;;
11447;SDS011;43755;49.736;8.734;2022-08-19T00:13:55;17.58;;;15.98;;
11447;SDS011;43755;49.736;8.734;2022-08-19T00:15:57;18.80;;;17.05;;
11447;SDS011;43755;49.736;8.734;2022-08-19T00:17:59;18.23;;;16.63;;
11447;SDS011;43755;49.736;8.734;2022-08-19T00:20:02;20.27;;;18.30;;
11447;SDS011;43755;49.736;8.734;2022-08-19T00:22:04;16.38;;;14.95;;
11447;SDS011;43755;49.736;8.734;2022-08-19T00:24:06;16.63;;;15.23;;
11447;SDS011;43755;49.736;8.734;2022-08-19T00:26:08;17.65;;;16.05;;
11447;SDS011;43755;49.736;8.734;2022-08-19T00:28:10;18.45;;;16.77;;
11447;SDS011;43755;49.736;8.734;2022-08-19T00:30:12;18.90;;;17.13;;
11447;SDS011;43755;49.736;8.734;2022-08-19T00:32:13;18.20;;;16.60;;
11447;SDS011;43755;49.736;8.734;2022-08-19T00:34:15;19.23;;;17.45;;
11447;SDS011;43755;49.736;8.734;2022-08-19T00:36:18;19.00;;;17.30;;
11447;SDS011;43755;49.736;8.734;2022-08-19T00:38:19;17.67;;;16.17;;
11447;SDS011;43755;49.736;8.734;2022-08-19T00:40:22;18.45;;;16.55;;
11447;SDS011;43755;49.736;8.734;2022-08-19T00:42:24;18.55;;;16.65;;
11447;SDS011;43755;49.736;8.734;2022-08-19T00:44:28;20.98;;;18.92;;
11447;SDS011;43755;49.736;8.734;2022-08-19T00:46:32;19.85;;;17.98;;
11447;SDS011;43755;49.736;8.734;2022-08-19T00:48:36;20.40;;;18.52;;
11447;SDS011;43755;49.736;8.734;2022-08-19T00:50:38;19.27;;;17.45;;
11447;SDS011;43755;49.736;8.734;2022-08-19T00:52:44;18.45;;;16.83;;
11447;SDS011;43755;49.736;8.734;2022-08-19T00:54:48;18.25;;;16.63;;
11447;SDS011;43755;49.736;8.734;2022-08-19T00:56:50;19.63;;;17.83;;
11447;SDS011;43755;49.736;8.734;2022-08-19T00:58:52;18.38;;;16.60;;
11447;SDS011;43755;49.736;8.734;2022-08-19T01:00:57;21.13;;;19.13;;
11447;SDS011;43755;49.736;8.734;2022-08-19T01:02:58;20.05;;;18.13;;
11447;SDS011;43755;49.736;8.734;2022-08-19T01:05:00;20.30;;;18.30;;
11447;SDS011;43755;49.736;8.734;2022-08-19T01:07:04;19.83;;;17.83;;
11447;SDS011;43755;49.736;8.734;2022-08-19T01:09:08;21.13;;;19.02;;
11447;SDS011;43755;49.736;8.734;2022-08-19T01:11:10;21.90;;;19.70;;
11447;SDS011;43755;49.736;8.734;2022-08-19T01:13:11;20.27;;;18.38;;
11447;SDS011;43755;49.736;8.734;2022-08-19T01:15:17;19.30;;;17.50;;
11447;SDS011;43755;49.736;8.734;2022-08-19T01:17:21;19.92;;;18.02;;
11447;SDS011;43755;49.736;8.734;2022-08-19T01:19:24;20.25;;;18.40;;
11447;SDS011;43755;49.736;8.734;2022-08-19T01:21:34;19.55;;;17.65;;
11447;SDS011;43755;49.736;8.734;2022-08-19T01:23:43;20.95;;;18.95;;
11447;SDS011;43755;49.736;8.734;2022-08-19T01:25:47;17.55;;;15.82;;
11447;SDS011;43755;49.736;8.734;2022-08-19T01:27:51;18.95;;;17.20;;
11447;SDS011;43755;49.736;8.734;2022-08-19T01:29:53;20.55;;;18.08;;
11447;SDS011;43755;49.736;8.734;2022-08-19T01:31:54;19.70;;;17.70;;
11447;SDS011;43755;49.736;8.734;2022-08-19T01:33:56;20.52;;;18.65;;
11447;SDS011;43755;49.736;8.734;2022-08-19T01:36:03;20.83;;;18.77;;
11447;SDS011;43755;49.736;8.734;2022-08-19T01:38:07;19.45;;;17.60;;
11447;SDS011;43755;49.736;8.734;2022-08-19T01:40:12;18.98;;;17.17;;
11447;SDS011;43755;49.736;8.734;2022-08-19T01:42:13;21.63;;;19.40;;
11447;SDS011;43755;49.736;8.734;2022-08-19T01:44:15;20.08;;;18.05;;
11447;SDS011;43755;49.736;8.734;2022-08-19T01:46:20;18.30;;;16.50;;
11447;SDS011;43755;49.736;8.734;2022-08-19T01:48:21;19.70;;;17.60;;
11447;SDS011;43755;49.736;8.734;2022-08-19T01:50:23;18.50;;;16.63;;
11447;SDS011;43755;49.736;8.734;2022-08-19T01:52:25;19.63;;;17.63;;
11447;SDS011;43755;49.736;8.734;2022-08-19T01:54:27;19.17;;;17.27;;
11447;SDS011;43755;49.736;8.734;2022-08-19T01:56:30;19.15;;;17.20;;
11447;SDS011;43755;49.736;8.734;2022-08-19T01:58:33;17.80;;;16.08;;
11447;SDS011;43755;49.736;8.734;2022-08-19T02:00:38;19.77;;;17.85;;
11447;SDS011;43755;49.736;8.734;2022-08-19T02:02:40;18.17;;;16.38;;
11447;SDS011;43755;49.736;8.734;2022-08-19T02:04:41;17.35;;;15.73;;
11447;SDS011;43755;49.736;8.734;2022-08-19T02:06:43;17.80;;;16.00;;
11447;SDS011;43755;49.736;8.734;2022-08-19T02:08:44;17.98;;;16.23;;
11447;SDS011;43755;49.736;8.734;2022-08-19T02:10:47;18.27;;;16.48;;
11447;SDS011;43755;49.736;8.734;2022-08-19T02:12:51;17.90;;;16.25;;
11447;SDS011;43755;49.736;8.734;2022-08-19T02:14:52;17.05;;;15.35;;
11447;SDS011;43755;49.736;8.734;2022-08-19T02:16:54;20.02;;;18.02;;
11447;SDS011;43755;49.736;8.734;2022-08-19T02:18:55;18.65;;;16.67;;
11447;SDS011;43755;49.736;8.734;2022-08-19T02:20:57;18.95;;;17.25;;
11447;SDS011;43755;49.736;8.734;2022-08-19T02:22:58;19.55;;;17.75;;
11447;SDS011;43755;49.736;8.734;2022-08-19T02:25:01;19.00;;;17.20;;
11447;SDS011;43755;49.736;8.734;2022-08-19T02:27:04;17.92;;;16.23;;
11447;SDS011;43755;49.736;8.734;2022-08-19T02:29:07;17.88;;;16.27;;
11447;SDS011;43755;49.736;8.734;2022-08-19T02:31:09;15.95;;;14.45;;
11447;SDS011;43755;49.736;8.734;2022-08-19T02:33:12;15.93;;;14.43;;
11447;SDS011;43755;49.736;8.734;2022-08-19T02:35:15;16.50;;;15.00;;
11447;SDS011;43755;49.736;8.734;2022-08-19T02:37:16;16.85;;;15.25;;
11447;SDS011;43755;49.736;8.734;2022-08-19T02:39:31;16.88;;;15.30;;
11447;SDS011;43755;49.736;8.734;2022-08-19T02:41:33;18.40;;;16.50;;
11447;SDS011;43755;49.736;8.734;2022-08-19T02:43:35;18.70;;;16.95;;
11447;SDS011;43755;49.736;8.734;2022-08-19T02:45:39;16.80;;;14.25;;
11447;SDS011;43755;49.736;8.734;2022-08-19T02:47:41;18.40;;;16.70;;
11447;SDS011;43755;49.736;8.734;2022-08-19T02:49:42;16.80;;;15.20;;
11447;SDS011;43755;49.736;8.734;2022-08-19T02:51:44;16.27;;;14.77;;
11447;SDS011;43755;49.736;8.734;2022-08-19T02:53:46;17.55;;;15.82;;
11447;SDS011;43755;49.736;8.734;2022-08-19T02:55:50;16.88;;;15.18;;
11447;SDS011;43755;49.736;8.734;2022-08-19T02:57:52;16.92;;;15.23;;
11447;SDS011;43755;49.736;8.734;2022-08-19T02:59:54;17.00;;;15.27;;
11447;SDS011;43755;49.736;8.734;2022-08-19T03:01:56;18.73;;;16.63;;
11447;SDS011;43755;49.736;8.734;2022-08-19T03:04:00;17.33;;;15.63;;
11447;SDS011;43755;49.736;8.734;2022-08-19T03:06:08;16.90;;;15.30;;
11447;SDS011;43755;49.736;8.734;2022-08-19T03:08:11;17.17;;;15.57;;
11447;SDS011;43755;49.736;8.734;2022-08-19T03:10:13;16.98;;;15.40;;
11447;SDS011;43755;49.736;8.734;2022-08-19T03:12:15;16.73;;;15.13;;
11447;SDS011;43755;49.736;8.734;2022-08-19T03:14:16;17.02;;;15.38;;
11447;SDS011;43755;49.736;8.734;2022-08-19T03:16:19;17.13;;;15.35;;
11447;SDS011;43755;49.736;8.734;2022-08-19T03:18:23;17.67;;;16.05;;
11447;SDS011;43755;49.736;8.734;2022-08-19T03:20:25;17.65;;;16.02;;
11447;SDS011;43755;49.736;8.734;2022-08-19T03:22:26;17.13;;;15.43;;
11447;SDS011;43755;49.736;8.734;2022-08-19T03:24:28;16.73;;;15.05;;
11447;SDS011;43755;49.736;8.734;2022-08-19T03:26:30;18.25;;;15.85;;
11447;SDS011;43755;49.736;8.734;2022-08-19T03:28:32;17.45;;;15.65;;
11447;SDS011;43755;49.736;8.734;2022-08-19T03:30:34;16.92;;;15.40;;
11447;SDS011;43755;49.736;8.734;2022-08-19T03:32:35;17.83;;;16.13;;
11447;SDS011;43755;49.736;8.734;2022-08-19T03:34:38;17.38;;;15.73;;
11447;SDS011;43755;49.736;8.734;2022-08-19T03:36:40;17.10;;;15.50;;
11447;SDS011;43755;49.736;8.734;2022-08-19T03:38:43;19.23;;;17.08;;
11447;SDS011;43755;49.736;8.734;2022-08-19T03:40:46;18.08;;;16.27;;
11447;SDS011;43755;49.736;8.734;2022-08-19T03:42:47;18.85;;;16.90;;
11447;SDS011;43755;49.736;8.734;2022-08-19T03:44:49;17.45;;;15.85;;
11447;SDS011;43755;49.736;8.734;2022-08-19T03:46:52;18.52;;;16.63;;
11447;SDS011;43755;49.736;8.734;2022-08-19T03:48:55;17.67;;;16.05;;
11447;SDS011;43755;49.736;8.734;2022-08-19T03:51:00;19.40;;;17.60;;
11447;SDS011;43755;49.736;8.734;2022-08-19T03:53:02;18.83;;;16.98;;
11447;SDS011;43755;49.736;8.734;2022-08-19T03:55:04;19.20;;;17.33;;
11447;SDS011;43755;49.736;8.734;2022-08-19T03:57:07;19.38;;;17.42;;
11447;SDS011;43755;49.736;8.734;2022-08-19T03:59:09;19.98;;;18.10;;
11447;SDS011;43755;49.736;8.734;2022-08-19T04:01:14;19.13;;;17.05;;
11447;SDS011;43755;49.736;8.734;2022-08-19T04:03:17;19.80;;;17.80;;
11447;SDS011;43755;49.736;8.734;2022-08-19T04:05:19;19.20;;;17.42;;
11447;SDS011;43755;49.736;8.734;2022-08-19T04:07:22;18.55;;;16.65;;
11447;SDS011;43755;49.736;8.734;2022-08-19T04:09:24;18.48;;;16.77;;
11447;SDS011;43755;49.736;8.734;2022-08-19T04:11:27;20.35;;;18.13;;
11447;SDS011;43755;49.736;8.734;2022-08-19T04:13:30;19.08;;;17.15;;
11447;SDS011;43755;49.736;8.734;2022-08-19T04:15:32;17.75;;;15.80;;
11447;SDS011;43755;49.736;8.734;2022-08-19T04:17:39;18.58;;;16.60;;
11447;SDS011;43755;49.736;8.734;2022-08-19T04:19:40;17.67;;;16.00;;
11447;SDS011;43755;49.736;8.734;2022-08-19T04:21:43;17.88;;;16.17;;
11447;SDS011;43755;49.736;8.734;2022-08-19T04:23:47;18.42;;;16.52;;
11447;SDS011;43755;49.736;8.734;2022-08-19T04:25:49;18.30;;;16.33;;
11447;SDS011;43755;49.736;8.734;2022-08-19T04:27:51;16.70;;;15.10;;
11447;SDS011;43755;49.736;8.734;2022-08-19T04:29:52;18.50;;;16.60;;
11447;SDS011;43755;49.736;8.734;2022-08-19T04:31:55;17.02;;;15.43;;
11447;SDS011;43755;49.736;8.734;2022-08-19T04:33:59;17.33;;;15.65;;
11447;SDS011;43755;49.736;8.734;2022-08-19T04:36:02;16.98;;;15.38;;
11447;SDS011;43755;49.736;8.734;2022-08-19T04:38:04;17.50;;;15.80;;
11447;SDS011;43755;49.736;8.734;2022-08-19T04:40:08;17.88;;;16.10;;
11447;SDS011;43755;49.736;8.734;2022-08-19T04:42:27;17.95;;;16.13;;
11447;SDS011;43755;49.736;8.734;2022-08-19T04:44:41;17.00;;;15.30;;
11447;SDS011;43755;49.736;8.734;2022-08-19T04:46:43;16.70;;;15.10;;
11447;SDS011;43755;49.736;8.734;2022-08-19T04:48:44;15.43;;;13.95;;
11447;SDS011;43755;49.736;8.734;2022-08-19T04:50:46;17.48;;;15.70;;
11447;SDS011;43755;49.736;8.734;2022-08-19T04:52:49;16.13;;;14.63;;
11447;SDS011;43755;49.736;8.734;2022-08-19T04:54:51;16.92;;;15.43;;
11447;SDS011;43755;49.736;8.734;2022-08-19T04:56:54;16.67;;;15.18;;
11447;SDS011;43755;49.736;8.734;2022-08-19T04:58:56;15.10;;;13.70;;
11447;SDS011;43755;49.736;8.734;2022-08-19T05:00:58;16.05;;;14.65;;
11447;SDS011;43755;49.736;8.734;2022-08-19T05:03:00;15.07;;;13.75;;
11447;SDS011;43755;49.736;8.734;2022-08-19T05:05:02;14.98;;;13.63;;
11447;SDS011;43755;49.736;8.734;2022-08-19T05:07:06;16.50;;;14.85;;
11447;SDS011;43755;49.736;8.734;2022-08-19T05:09:09;16.02;;;13.88;;
11447;SDS011;43755;49.736;8.734;2022-08-19T05:11:11;15.25;;;13.55;;
11447;SDS011;43755;49.736;8.734;2022-08-19T05:13:16;16.55;;;14.82;;
11447;SDS011;43755;49.736;8.734;2022-08-19T05:15:19;15.98;;;14.45;;
11447;SDS011;43755;49.736;8.734;2022-08-19T05:17:21;17.00;;;15.50;;
11447;SDS011;43755;49.736;8.734;2022-08-19T05:19:23;16.25;;;14.75;;
11447;SDS011;43755;49.736;8.734;2022-08-19T05:21:42;17.23;;;15.43;;
11447;SDS011;43755;49.736;8.734;2022-08-19T05:24:02;16.25;;;14.75;;
11447;SDS011;43755;49.736;8.734;2022-08-19T05:26:08;16.02;;;14.50;;
11447;SDS011;43755;49.736;8.734;2022-08-19T05:28:10;16.13;;;14.73;;
11447;SDS011;43755;49.736;8.734;2022-08-19T05:30:14;14.50;;;13.20;;
11447;SDS011;43755;49.736;8.734;2022-08-19T05:32:16;15.63;;;14.05;;
11447;SDS011;43755;49.736;8.734;2022-08-19T05:34:18;16.38;;;14.68;;
11447;SDS011;43755;49.736;8.734;2022-08-19T05:36:21;15.48;;;13.98;;
11447;SDS011;43755;49.736;8.734;2022-08-19T05:38:22;15.85;;;14.25;;
11447;SDS011;43755;49.736;8.734;2022-08-19T05:40:26;15.68;;;14.05;;
11447;SDS011;43755;49.736;8.734;2022-08-19T05:42:28;16.60;;;14.93;;
11447;SDS011;43755;49.736;8.734;2022-08-19T05:44:30;15.23;;;13.75;;
11447;SDS011;43755;49.736;8.734;2022-08-19T05:46:34;14.68;;;13.27;;
11447;SDS011;43755;49.736;8.734;2022-08-19T05:48:37;14.80;;;13.50;;
11447;SDS011;43755;49.736;8.734;2022-08-19T05:50:39;15.90;;;14.40;;
11447;SDS011;43755;49.736;8.734;2022-08-19T05:52:42;14.75;;;13.45;;
11447;SDS011;43755;49.736;8.734;2022-08-19T05:54:43;14.98;;;13.52;;
11447;SDS011;43755;49.736;8.734;2022-08-19T05:56:47;14.70;;;13.30;;
11447;SDS011;43755;49.736;8.734;2022-08-19T05:58:49;14.18;;;12.88;;
11447;SDS011;43755;49.736;8.734;2022-08-19T06:00:50;14.13;;;12.80;;
11447;SDS011;43755;49.736;8.734;2022-08-19T06:02:56;14.15;;;12.68;;
11447;SDS011;43755;49.736;8.734;2022-08-19T06:05:03;13.18;;;11.88;;
11447;SDS011;43755;49.736;8.734;2022-08-19T06:07:08;15.68;;;12.70;;
11447;SDS011;43755;49.736;8.734;2022-08-19T06:09:10;14.10;;;12.90;;
11447;SDS011;43755;49.736;8.734;2022-08-19T06:11:12;14.05;;;12.73;;
11447;SDS011;43755;49.736;8.734;2022-08-19T06:13:18;14.50;;;13.27;;
11447;SDS011;43755;49.736;8.734;2022-08-19T06:15:20;13.97;;;12.67;;
11447;SDS011;43755;49.736;8.734;2022-08-19T06:17:22;14.93;;;13.40;;
11447;SDS011;43755;49.736;8.734;2022-08-19T06:19:27;14.57;;;13.07;;
11447;SDS011;43755;49.736;8.734;2022-08-19T06:21:30;14.37;;;12.97;;
11447;SDS011;43755;49.736;8.734;2022-08-19T06:23:32;14.87;;;13.47;;
11447;SDS011;43755;49.736;8.734;2022-08-19T06:25:34;14.05;;;12.52;;
11447;SDS011;43755;49.736;8.734;2022-08-19T06:27:36;14.33;;;13.03;;
11447;SDS011;43755;49.736;8.734;2022-08-19T06:29:38;12.90;;;11.65;;
11447;SDS011;43755;49.736;8.734;2022-08-19T06:31:40;13.60;;;12.38;;
11447;SDS011;43755;49.736;8.734;2022-08-19T06:33:43;14.30;;;12.53;;
11447;SDS011;43755;49.736;8.734;2022-08-19T06:35:47;13.63;;;12.40;;
11447;SDS011;43755;49.736;8.734;2022-08-19T06:37:48;14.60;;;13.23;;
11447;SDS011;43755;49.736;8.734;2022-08-19T06:39:50;14.00;;;12.63;;
11447;SDS011;43755;49.736;8.734;2022-08-19T06:41:52;12.43;;;11.33;;
11447;SDS011;43755;49.736;8.734;2022-08-19T06:43:55;14.07;;;12.67;;
11447;SDS011;43755;49.736;8.734;2022-08-19T06:45:57;14.90;;;13.50;;
11447;SDS011;43755;49.736;8.734;2022-08-19T06:48:01;14.70;;;13.20;;
11447;SDS011;43755;49.736;8.734;2022-08-19T06:50:03;13.53;;;12.20;;
11447;SDS011;43755;49.736;8.734;2022-08-19T06:52:06;14.90;;;13.40;;
11447;SDS011;43755;49.736;8.734;2022-08-19T06:54:08;15.43;;;12.43;;
11447;SDS011;43755;49.736;8.734;2022-08-19T06:56:09;14.13;;;12.07;;
11447;SDS011;43755;49.736;8.734;2022-08-19T06:58:11;16.03;;;12.47;;
11447;SDS011;43755;49.736;8.734;2022-08-19T07:00:12;13.60;;;12.20;;
11447;SDS011;43755;49.736;8.734;2022-08-19T07:02:14;14.63;;;12.77;;
11447;SDS011;43755;49.736;8.734;2022-08-19T07:04:17;13.90;;;12.50;;
11447;SDS011;43755;49.736;8.734;2022-08-19T07:06:20;13.70;;;12.30;;
11447;SDS011;43755;49.736;8.734;2022-08-19T07:08:23;13.83;;;12.40;;
11447;SDS011;43755;49.736;8.734;2022-08-19T07:10:26;12.50;;;11.30;;
11447;SDS011;43755;49.736;8.734;2022-08-19T07:12:29;14.00;;;12.70;;
11447;SDS011;43755;49.736;8.734;2022-08-19T07:14:34;13.40;;;12.10;;
11447;SDS011;43755;49.736;8.734;2022-08-19T07:16:37;13.37;;;12.00;;
11447;SDS011;43755;49.736;8.734;2022-08-19T07:18:39;13.63;;;12.23;;
11447;SDS011;43755;49.736;8.734;2022-08-19T07:20:44;13.13;;;11.93;;
11447;SDS011;43755;49.736;8.734;2022-08-19T07:22:45;13.80;;;12.40;;
11447;SDS011;43755;49.736;8.734;2022-08-19T07:24:49;15.17;;;11.50;;
11447;SDS011;43755;49.736;8.734;2022-08-19T07:26:52;13.00;;;11.80;;
11447;SDS011;43755;49.736;8.734;2022-08-19T07:28:54;12.93;;;11.53;;
11447;SDS011;43755;49.736;8.734;2022-08-19T07:30:57;12.40;;;11.13;;
11447;SDS011;43755;49.736;8.734;2022-08-19T07:32:58;12.57;;;11.37;;
11447;SDS011;43755;49.736;8.734;2022-08-19T07:35:00;13.00;;;11.70;;
11447;SDS011;43755;49.736;8.734;2022-08-19T07:37:03;12.40;;;11.23;;
11447;SDS011;43755;49.736;8.734;2022-08-19T07:39:08;12.13;;;11.03;;
11447;SDS011;43755;49.736;8.734;2022-08-19T07:41:13;13.87;;;11.90;;
11447;SDS011;43755;49.736;8.734;2022-08-19T07:43:17;15.53;;;11.13;;
11447;SDS011;43755;49.736;8.734;2022-08-19T07:45:20;14.00;;;12.03;;
11447;SDS011;43755;49.736;8.734;2022-08-19T07:47:22;12.77;;;11.33;;
11447;SDS011;43755;49.736;8.734;2022-08-19T07:49:23;12.50;;;11.23;;
11447;SDS011;43755;49.736;8.734;2022-08-19T07:51:25;12.77;;;11.47;;
11447;SDS011;43755;49.736;8.734;2022-08-19T07:53:28;13.30;;;12.00;;
11447;SDS011;43755;49.736;8.734;2022-08-19T07:55:30;13.80;;;12.20;;
11447;SDS011;43755;49.736;8.734;2022-08-19T07:57:33;12.80;;;11.60;;
11447;SDS011;43755;49.736;8.734;2022-08-19T07:59:35;11.67;;;10.47;;
11447;SDS011;43755;49.736;8.734;2022-08-19T08:01:37;12.03;;;10.77;;
11447;SDS011;43755;49.736;8.734;2022-08-19T08:03:39;13.17;;;10.77;;
11447;SDS011;43755;49.736;8.734;2022-08-19T08:05:58;12.10;;;11.00;;
11447;SDS011;43755;49.736;8.734;2022-08-19T08:08:14;14.10;;;10.53;;
11447;SDS011;43755;49.736;8.734;2022-08-19T08:10:35;11.70;;;10.50;;
11447;SDS011;43755;49.736;8.734;2022-08-19T08:12:40;12.83;;;9.53;;
11447;SDS011;43755;49.736;8.734;2022-08-19T08:14:42;9.67;;;8.73;;
11447;SDS011;43755;49.736;8.734;2022-08-19T08:16:47;10.33;;;8.70;;
11447;SDS011;43755;49.736;8.734;2022-08-19T08:18:50;9.63;;;8.23;;
11447;SDS011;43755;49.736;8.734;2022-08-19T08:20:52;9.63;;;8.77;;
11447;SDS011;43755;49.736;8.734;2022-08-19T08:22:53;9.70;;;7.83;;
11447;SDS011;43755;49.736;8.734;2022-08-19T08:25:13;8.50;;;7.60;;
11447;SDS011;43755;49.736;8.734;2022-08-19T08:27:19;8.20;;;7.40;;
11447;SDS011;43755;49.736;8.734;2022-08-19T08:29:22;8.27;;;6.80;;
11447;SDS011;43755;49.736;8.734;2022-08-19T08:31:24;7.23;;;6.53;;
11447;SDS011;43755;49.736;8.734;2022-08-19T08:33:26;7.10;;;6.40;;
11447;SDS011;43755;49.736;8.734;2022-08-19T08:35:30;8.13;;;7.20;;
11447;SDS011;43755;49.736;8.734;2022-08-19T08:37:31;7.53;;;6.93;;
11447;SDS011;43755;49.736;8.734;2022-08-19T08:39:33;9.43;;;7.40;;
11447;SDS011;43755;49.736;8.734;2022-08-19T08:41:36;9.23;;;6.60;;
11447;SDS011;43755;49.736;8.734;2022-08-19T08:43:47;8.67;;;6.83;;
11447;SDS011;43755;49.736;8.734;2022-08-19T08:45:54;8.23;;;6.63;;
11447;SDS011;43755;49.736;8.734;2022-08-19T08:48:10;7.17;;;6.37;;
11447;SDS011;43755;49.736;8.734;2022-08-19T08:50:21;7.53;;;6.87;;
11447;SDS011;43755;49.736;8.734;2022-08-19T08:52:28;7.40;;;6.70;;
11447;SDS011;43755;49.736;8.734;2022-08-19T08:54:35;7.10;;;6.40;;
11447;SDS011;43755;49.736;8.734;2022-08-19T08:56:40;8.60;;;7.80;;
11447;SDS011;43755;49.736;8.734;2022-08-19T08:58:47;8.10;;;7.33;;
11447;SDS011;43755;49.736;8.734;2022-08-19T09:00:56;7.83;;;7.10;;
11447;SDS011;43755;49.736;8.734;2022-08-19T09:02:59;9.23;;;6.77;;
11447;SDS011;43755;49.736;8.734;2022-08-19T09:05:02;8.27;;;7.47;;
11447;SDS011;43755;49.736;8.734;2022-08-19T09:07:15;7.60;;;6.83;;
11447;SDS011;43755;49.736;8.734;2022-08-19T09:09:27;8.13;;;6.90;;
11447;SDS011;43755;49.736;8.734;2022-08-19T09:11:39;7.63;;;6.93;;
11447;SDS011;43755;49.736;8.734;2022-08-19T09:13:52;7.27;;;6.57;;
11447;SDS011;43755;49.736;8.734;2022-08-19T09:16:05;6.70;;;6.10;;
11447;SDS011;43755;49.736;8.734;2022-08-19T09:18:08;7.00;;;6.43;;
11447;SDS011;43755;49.736;8.734;2022-08-19T09:20:14;7.07;;;6.37;;
11447;SDS011;43755;49.736;8.734;2022-08-19T09:22:18;8.40;;;5.97;;
11447;SDS011;43755;49.736;8.734;2022-08-19T09:24:21;6.67;;;5.50;;
11447;SDS011;43755;49.736;8.734;2022-08-19T09:26:23;5.67;;;5.17;;
11447;SDS011;43755;49.736;8.734;2022-08-19T09:28:25;6.10;;;5.60;;
11447;SDS011;43755;49.736;8.734;2022-08-19T09:30:28;4.90;;;4.50;;
11447;SDS011;43755;49.736;8.734;2022-08-19T09:32:33;4.63;;;4.30;;
11447;SDS011;43755;49.736;8.734;2022-08-19T09:34:34;4.77;;;4.27;;
11447;SDS011;43755;49.736;8.734;2022-08-19T09:36:36;5.13;;;4.63;;
11447;SDS011;43755;49.736;8.734;2022-08-19T09:38:39;6.50;;;5.00;;
11447;SDS011;43755;49.736;8.734;2022-08-19T09:40:41;5.20;;;4.77;;
11447;SDS011;43755;49.736;8.734;2022-08-19T09:42:42;5.47;;;4.83;;
11447;SDS011;43755;49.736;8.734;2022-08-19T09:44:44;4.33;;;3.93;;
11447;SDS011;43755;49.736;8.734;2022-08-19T09:46:46;4.33;;;4.03;;
11447;SDS011;43755;49.736;8.734;2022-08-19T09:48:50;5.30;;;4.80;;
11447;SDS011;43755;49.736;8.734;2022-08-19T09:50:52;5.00;;;4.60;;
11447;SDS011;43755;49.736;8.734;2022-08-19T09:52:53;4.73;;;4.40;;
11447;SDS011;43755;49.736;8.734;2022-08-19T09:54:56;5.60;;;5.10;;
11447;SDS011;43755;49.736;8.734;2022-08-19T09:56:58;7.77;;;5.07;;
11447;SDS011;43755;49.736;8.734;2022-08-19T09:59:02;5.40;;;4.90;;
11447;SDS011;43755;49.736;8.734;2022-08-19T10:01:05;5.10;;;4.80;;
11447;SDS011;43755;49.736;8.734;2022-08-19T10:03:07;4.80;;;4.43;;
11447;SDS011;43755;49.736;8.734;2022-08-19T10:05:10;5.50;;;5.03;;
11447;SDS011;43755;49.736;8.734;2022-08-19T10:07:38;5.60;;;5.10;;
11447;SDS011;43755;49.736;8.734;2022-08-19T10:09:39;5.27;;;4.73;;
11447;SDS011;43755;49.736;8.734;2022-08-19T10:11:42;5.53;;;4.73;;
11447;SDS011;43755;49.736;8.734;2022-08-19T10:13:45;4.87;;;4.30;;
11447;SDS011;43755;49.736;8.734;2022-08-19T10:15:48;4.33;;;3.97;;
11447;SDS011;43755;49.736;8.734;2022-08-19T10:17:54;5.50;;;4.43;;
11447;SDS011;43755;49.736;8.734;2022-08-19T10:19:59;4.77;;;4.30;;
11447;SDS011;43755;49.736;8.734;2022-08-19T10:22:04;5.10;;;4.40;;
11447;SDS011;43755;49.736;8.734;2022-08-19T10:24:07;16.20;;;5.23;;
11447;SDS011;43755;49.736;8.734;2022-08-19T10:26:09;5.20;;;4.80;;
11447;SDS011;43755;49.736;8.734;2022-08-19T10:28:10;4.70;;;4.30;;
11447;SDS011;43755;49.736;8.734;2022-08-19T10:30:12;5.20;;;4.70;;
11447;SDS011;43755;49.736;8.734;2022-08-19T10:32:14;4.73;;;4.33;;
11447;SDS011;43755;49.736;8.734;2022-08-19T10:34:16;5.70;;;4.83;;
11447;SDS011;43755;49.736;8.734;2022-08-19T10:36:19;5.50;;;4.70;;
11447;SDS011;43755;49.736;8.734;2022-08-19T10:38:23;5.03;;;4.63;;
11447;SDS011;43755;49.736;8.734;2022-08-19T10:40:25;8.73;;;5.37;;
11447;SDS011;43755;49.736;8.734;2022-08-19T10:42:27;6.33;;;5.73;;
11447;SDS011;43755;49.736;8.734;2022-08-19T10:44:31;6.40;;;6.00;;
11447;SDS011;43755;49.736;8.734;2022-08-19T10:46:33;6.53;;;6.03;;
11447;SDS011;43755;49.736;8.734;2022-08-19T10:48:37;7.67;;;6.77;;
11447;SDS011;43755;49.736;8.734;2022-08-19T10:50:38;5.87;;;5.47;;
11447;SDS011;43755;49.736;8.734;2022-08-19T10:52:57;5.70;;;5.27;;
11447;SDS011;43755;49.736;8.734;2022-08-19T10:55:06;5.87;;;5.47;;
11447;SDS011;43755;49.736;8.734;2022-08-19T10:57:25;5.90;;;5.47;;
11447;SDS011;43755;49.736;8.734;2022-08-19T10:59:32;7.33;;;6.10;;
11447;SDS011;43755;49.736;8.734;2022-08-19T11:01:35;6.60;;;5.90;;
11447;SDS011;43755;49.736;8.734;2022-08-19T11:03:37;6.33;;;5.73;;
11447;SDS011;43755;49.736;8.734;2022-08-19T11:05:38;6.43;;;5.83;;
11447;SDS011;43755;49.736;8.734;2022-08-19T11:07:41;6.60;;;6.10;;
11447;SDS011;43755;49.736;8.734;2022-08-19T11:09:44;6.93;;;6.33;;
11447;SDS011;43755;49.736;8.734;2022-08-19T11:11:49;7.30;;;5.80;;
11447;SDS011;43755;49.736;8.734;2022-08-19T11:13:53;6.40;;;5.80;;
11447;SDS011;43755;49.736;8.734;2022-08-19T11:15:58;7.40;;;6.80;;
11447;SDS011;43755;49.736;8.734;2022-08-19T11:18:01;6.77;;;5.77;;
11447;SDS011;43755;49.736;8.734;2022-08-19T11:20:03;7.20;;;6.03;;
11447;SDS011;43755;49.736;8.734;2022-08-19T11:22:07;6.00;;;5.50;;
11447;SDS011;43755;49.736;8.734;2022-08-19T11:24:10;6.00;;;5.53;;
11447;SDS011;43755;49.736;8.734;2022-08-19T11:26:15;6.20;;;5.27;;
11447;SDS011;43755;49.736;8.734;2022-08-19T11:28:19;5.77;;;5.27;;
11447;SDS011;43755;49.736;8.734;2022-08-19T11:30:21;5.97;;;5.00;;
11447;SDS011;43755;49.736;8.734;2022-08-19T11:32:23;5.70;;;5.20;;
11447;SDS011;43755;49.736;8.734;2022-08-19T11:34:27;6.17;;;5.67;;
11447;SDS011;43755;49.736;8.734;2022-08-19T11:36:30;6.67;;;6.07;;
11447;SDS011;43755;49.736;8.734;2022-08-19T11:38:32;6.00;;;5.40;;
11447;SDS011;43755;49.736;8.734;2022-08-19T11:40:35;5.73;;;5.27;;
11447;SDS011;43755;49.736;8.734;2022-08-19T11:42:37;6.00;;;5.10;;
11447;SDS011;43755;49.736;8.734;2022-08-19T11:44:59;5.13;;;4.80;;
11447;SDS011;43755;49.736;8.734;2022-08-19T11:47:03;7.40;;;5.43;;
11447;SDS011;43755;49.736;8.734;2022-08-19T11:49:06;5.07;;;4.67;;
11447;SDS011;43755;49.736;8.734;2022-08-19T11:51:09;5.23;;;4.73;;
11447;SDS011;43755;49.736;8.734;2022-08-19T11:53:12;5.50;;;5.10;;
11447;SDS011;43755;49.736;8.734;2022-08-19T11:55:14;5.80;;;5.20;;
11447;SDS011;43755;49.736;8.734;2022-08-19T11:57:15;5.63;;;5.23;;
11447;SDS011;43755;49.736;8.734;2022-08-19T11:59:17;6.33;;;5.70;;
11447;SDS011;43755;49.736;8.734;2022-08-19T12:01:21;7.53;;;5.93;;
11447;SDS011;43755;49.736;8.734;2022-08-19T12:03:23;5.03;;;4.73;;
11447;SDS011;43755;49.736;8.734;2022-08-19T12:05:25;6.53;;;5.23;;
11447;SDS011;43755;49.736;8.734;2022-08-19T12:07:26;5.63;;;5.10;;
11447;SDS011;43755;49.736;8.734;2022-08-19T12:09:29;5.27;;;4.87;;
11447;SDS011;43755;49.736;8.734;2022-08-19T12:11:32;7.27;;;6.67;;